Time;durP1;ratioP1;P1;durP2;ratioP2;P2;SDS_P1;SDS_P2;PMS_P1;PMS_P2;Temp;Humidity;BMP_temperature;BMP_pressure;BME280_temperature;BME280_humidity;BME280_pressure;Samples;Min_cycle;Max_cycle;Signal;HPM_P1;HPM_P2
2021/04/28 00:00:12;;;;;;;6.93;5.23;;;9.3;82.2;;;;;;;;;
2021/04/28 00:01:01;;;;;;;6.93;5.23;;;9.3;82.2;;;;;;;;;
2021/04/28 00:02:01;;;;;;;6.23;5.27;;;9.3;83.1;;;;;;;;;
2021/04/28 00:02:25;;;;;;;7.8;5.1;;;9.2;83.2;;;;;;;;;
2021/04/28 00:03:01;;;;;;;7.8;5.1;;;9.2;83.2;;;;;;;;;
2021/04/28 00:03:16;;;;;;;9.17;5.37;;;9.2;83.3;;;;;;;;;
2021/04/28 00:04:01;;;;;;;9.17;5.37;;;9.2;83.3;;;;;;;;;
2021/04/28 00:04:12;;;;;;;9.17;5.37;;;9.2;83.3;;;;;;;;;
2021/04/28 00:04:38;;;;;;;7.8;5.2;;;9.2;83.6;;;;;;;;;
2021/04/28 00:05:01;;;;;;;7.8;5.2;;;9.2;83.6;;;;;;;;;
2021/04/28 00:05:14;;;;;;;6.83;6.13;;;9.2;83.6;;;;;;;;;
2021/04/28 00:05:29;;;;;;;6.83;6.13;;;9.2;83.6;;;;;;;;;
2021/04/28 00:06:01;;;;;;;6.83;6.13;;;9.2;83.6;;;;;;;;;
2021/04/28 00:06:15;;;;;;;7.4;5.63;;;9.2;83.5;;;;;;;;;
2021/04/28 00:06:26;;;;;;;7.4;5.63;;;9.2;83.5;;;;;;;;;
2021/04/28 00:06:51;;;;;;;7.4;5.63;;;9.2;83.5;;;;;;;;;
2021/04/28 00:07:03;;;;;;;7.4;5.63;;;9.2;83.5;;;;;;;;;
2021/04/28 00:07:17;;;;;;;9.83;5.43;;;9.2;83.5;;;;;;;;;
2021/04/28 00:07:27;;;;;;;9.83;5.43;;;9.2;83.5;;;;;;;;;
2021/04/28 00:07:42;;;;;;;9.83;5.43;;;9.2;83.5;;;;;;;;;
2021/04/28 00:08:01;;;;;;;9.83;5.43;;;9.2;83.5;;;;;;;;;
2021/04/28 00:08:13;;;;;;;9.83;5.43;;;9.2;83.5;;;;;;;;;
2021/04/28 00:08:29;;;;;;;7.23;5.47;;;9.2;83.6;;;;;;;;;
2021/04/28 00:08:39;;;;;;;7.23;5.47;;;9.2;83.6;;;;;;;;;
2021/04/28 00:09:01;;;;;;;7.23;5.47;;;9.2;83.6;;;;;;;;;
2021/04/28 00:09:04;;;;;;;7.23;5.47;;;9.2;83.6;;;;;;;;;
2021/04/28 00:09:15;;;;;;;5.9;5.3;;;9.2;83.6;;;;;;;;;
2021/04/28 00:09:30;;;;;;;5.9;5.3;;;9.2;83.6;;;;;;;;;
2021/04/28 00:09:40;;;;;;;5.9;5.3;;;9.2;83.6;;;;;;;;;
2021/04/28 00:09:55;;;;;;;5.9;5.3;;;9.2;83.6;;;;;;;;;
2021/04/28 00:10:01;;;;;;;5.9;5.3;;;9.2;83.6;;;;;;;;;
2021/04/28 00:10:16;;;;;;;5.87;4.9;;;9.2;83.7;;;;;;;;;
2021/04/28 00:10:26;;;;;;;5.87;4.9;;;9.2;83.7;;;;;;;;;
2021/04/28 00:10:42;;;;;;;5.87;4.9;;;9.2;83.7;;;;;;;;;
2021/04/28 00:10:52;;;;;;;5.87;4.9;;;9.2;83.7;;;;;;;;;
2021/04/28 00:11:01;;;;;;;5.87;4.9;;;9.2;83.7;;;;;;;;;
2021/04/28 00:11:17;;;;;;;7.87;4.87;;;9.1;84.5;;;;;;;;;
2021/04/28 00:11:28;;;;;;;7.87;4.87;;;9.1;84.5;;;;;;;;;
2021/04/28 00:11:43;;;;;;;7.87;4.87;;;9.1;84.5;;;;;;;;;
2021/04/28 00:11:53;;;;;;;7.87;4.87;;;9.1;84.5;;;;;;;;;
2021/04/28 00:12:02;;;;;;;7.87;4.87;;;9.1;84.5;;;;;;;;;
2021/04/28 00:12:09;;;;;;;7.87;4.87;;;9.1;84.5;;;;;;;;;
2021/04/28 00:12:14;;;;;;;7.87;4.87;;;9.1;84.5;;;;;;;;;
2021/04/28 00:12:29;;;;;;;6.33;5.47;;;9.2;83.8;;;;;;;;;
2021/04/28 00:12:39;;;;;;;6.33;5.47;;;9.2;83.8;;;;;;;;;
2021/04/28 00:12:55;;;;;;;6.33;5.47;;;9.2;83.8;;;;;;;;;
2021/04/28 00:13:02;;;;;;;6.33;5.47;;;9.2;83.8;;;;;;;;;
2021/04/28 00:13:05;;;;;;;6.33;5.47;;;9.2;83.8;;;;;;;;;
2021/04/28 00:13:15;;;;;;;5.43;4.8;;;9.2;83.9;;;;;;;;;
2021/04/28 00:13:31;;;;;;;5.43;4.8;;;9.2;83.9;;;;;;;;;
2021/04/28 00:13:41;;;;;;;5.43;4.8;;;9.2;83.9;;;;;;;;;
2021/04/28 00:13:56;;;;;;;5.43;4.8;;;9.2;83.9;;;;;;;;;
2021/04/28 00:14:02;;;;;;;5.43;4.8;;;9.2;83.9;;;;;;;;;
2021/04/28 00:14:06;;;;;;;5.43;4.8;;;9.2;83.9;;;;;;;;;
2021/04/28 00:14:17;;;;;;;6.57;5.33;;;9.1;84.1;;;;;;;;;
2021/04/28 00:14:27;;;;;;;6.57;5.33;;;9.1;84.1;;;;;;;;;
2021/04/28 00:14:42;;;;;;;6.57;5.33;;;9.1;84.1;;;;;;;;;
2021/04/28 00:14:52;;;;;;;6.57;5.33;;;9.1;84.1;;;;;;;;;
2021/04/28 00:15:01;;;;;;;6.57;5.33;;;9.1;84.1;;;;;;;;;
2021/04/28 00:15:08;;;;;;;6.57;5.33;;;9.1;84.1;;;;;;;;;
2021/04/28 00:15:13;;;;;;;6.57;5.33;;;9.1;84.1;;;;;;;;;
2021/04/28 00:15:28;;;;;;;5.9;5.13;;;9.1;84.1;;;;;;;;;
2021/04/28 00:15:44;;;;;;;5.9;5.13;;;9.1;84.1;;;;;;;;;
2021/04/28 00:15:54;;;;;;;5.9;5.13;;;9.1;84.1;;;;;;;;;
2021/04/28 00:16:02;;;;;;;5.9;5.13;;;9.1;84.1;;;;;;;;;
2021/04/28 00:16:09;;;;;;;5.9;5.13;;;9.1;84.1;;;;;;;;;
2021/04/28 00:16:14;;;;;;;5.9;5.13;;;9.1;84.1;;;;;;;;;
2021/04/28 00:16:30;;;;;;;10.87;5.2;;;9.1;84.2;;;;;;;;;
2021/04/28 00:16:40;;;;;;;10.87;5.2;;;9.1;84.2;;;;;;;;;
2021/04/28 00:16:55;;;;;;;10.87;5.2;;;9.1;84.2;;;;;;;;;
2021/04/28 00:17:02;;;;;;;10.87;5.2;;;9.1;84.2;;;;;;;;;
2021/04/28 00:17:06;;;;;;;10.87;5.2;;;9.1;84.2;;;;;;;;;
2021/04/28 00:17:16;;;;;;;10.87;5.2;;;9.1;84.2;;;;;;;;;
2021/04/28 00:17:26;;;;;;;8.03;5.3;;;9.1;84.3;;;;;;;;;
2021/04/28 00:17:41;;;;;;;8.03;5.3;;;9.1;84.3;;;;;;;;;
2021/04/28 00:18:01;;;;;;;8.03;5.3;;;9.1;84.3;;;;;;;;;
2021/04/28 00:18:02;;;;;;;8.03;5.3;;;9.1;84.3;;;;;;;;;
2021/04/28 00:18:07;;;;;;;8.03;5.3;;;9.1;84.3;;;;;;;;;
2021/04/28 00:18:17;;;;;;;5.6;5.1;;;9.1;84.3;;;;;;;;;
2021/04/28 00:18:27;;;;;;;5.6;5.1;;;9.1;84.3;;;;;;;;;
2021/04/28 00:18:43;;;;;;;5.6;5.1;;;9.1;84.3;;;;;;;;;
2021/04/28 00:18:53;;;;;;;5.6;5.1;;;9.1;84.3;;;;;;;;;
2021/04/28 00:19:02;;;;;;;5.6;5.1;;;9.1;84.3;;;;;;;;;
2021/04/28 00:19:08;;;;;;;5.6;5.1;;;9.1;84.3;;;;;;;;;
2021/04/28 00:19:14;;;;;;;5.6;5.1;;;9.1;84.3;;;;;;;;;
2021/04/28 00:19:29;;;;;;;6.97;5.23;;;9.1;84.4;;;;;;;;;
2021/04/28 00:19:39;;;;;;;6.97;5.23;;;9.1;84.4;;;;;;;;;
2021/04/28 00:19:55;;;;;;;6.97;5.23;;;9.1;84.4;;;;;;;;;
2021/04/28 00:20:01;;;;;;;6.97;5.23;;;9.1;84.4;;;;;;;;;
2021/04/28 00:20:15;;;;;;;6.97;5.23;;;9.1;84.4;;;;;;;;;
2021/04/28 00:20:15;;;;;;;6.97;5.23;;;9.1;84.4;;;;;;;;;
2021/04/28 00:20:37;;;;;;;7.9;5.03;;;9.1;84.3;;;;;;;;;
2021/04/28 00:20:41;;;;;;;7.9;5.03;;;9.1;84.3;;;;;;;;;
2021/04/28 00:20:56;;;;;;;7.9;5.03;;;9.1;84.3;;;;;;;;;
2021/04/28 00:21:02;;;;;;;7.9;5.03;;;9.1;84.3;;;;;;;;;
2021/04/28 00:21:07;;;;;;;7.9;5.03;;;9.1;84.3;;;;;;;;;
2021/04/28 00:21:16;;;;;;;7.9;5.03;;;9.1;84.3;;;;;;;;;
2021/04/28 00:21:27;;;;;;;6.37;4.6;;;9.1;84.4;;;;;;;;;
2021/04/28 00:21:42;;;;;;;6.37;4.6;;;9.1;84.4;;;;;;;;;
2021/04/28 00:21:52;;;;;;;6.37;4.6;;;9.1;84.4;;;;;;;;;
2021/04/28 00:22:02;;;;;;;6.37;4.6;;;9.1;84.4;;;;;;;;;
2021/04/28 00:22:08;;;;;;;6.37;4.6;;;9.1;84.4;;;;;;;;;
2021/04/28 00:22:18;;;;;;;6.87;5.33;;;9.1;84.3;;;;;;;;;
2021/04/28 00:22:28;;;;;;;6.87;5.33;;;9.1;84.3;;;;;;;;;
2021/04/28 00:22:49;;;;;;;6.87;5.33;;;9.1;84.3;;;;;;;;;
2021/04/28 00:22:54;;;;;;;6.87;5.33;;;9.1;84.3;;;;;;;;;
2021/04/28 00:23:02;;;;;;;6.87;5.33;;;9.1;84.3;;;;;;;;;
2021/04/28 00:23:09;;;;;;;6.87;5.33;;;9.1;84.3;;;;;;;;;
2021/04/28 00:23:14;;;;;;;6.87;5.33;;;9.1;84.3;;;;;;;;;
2021/04/28 00:23:30;;;;;;;6.03;5.43;;;9.1;84.5;;;;;;;;;
2021/04/28 00:23:40;;;;;;;6.03;5.43;;;9.1;84.5;;;;;;;;;
2021/04/28 00:23:55;;;;;;;6.03;5.43;;;9.1;84.5;;;;;;;;;
2021/04/28 00:24:02;;;;;;;6.03;5.43;;;9.1;84.5;;;;;;;;;
2021/04/28 00:24:05;;;;;;;6.03;5.43;;;9.1;84.5;;;;;;;;;
2021/04/28 00:24:16;;;;;;;6.03;5.43;;;9.1;84.5;;;;;;;;;
2021/04/28 00:24:31;;;;;;;10.53;5.8;;;9;84.5;;;;;;;;;
2021/04/28 00:24:41;;;;;;;10.53;5.8;;;9;84.5;;;;;;;;;
2021/04/28 00:25:01;;;;;;;10.53;5.8;;;9;84.5;;;;;;;;;
2021/04/28 00:25:02;;;;;;;10.53;5.8;;;9;84.5;;;;;;;;;
2021/04/28 00:25:07;;;;;;;10.53;5.8;;;9;84.5;;;;;;;;;
2021/04/28 00:25:12;;;;;;;10.53;5.8;;;9;84.5;;;;;;;;;
2021/04/28 00:25:27;;;;;;;5.8;5;;;9;84.7;;;;;;;;;
2021/04/28 00:25:43;;;;;;;5.8;5;;;9;84.7;;;;;;;;;
2021/04/28 00:25:53;;;;;;;5.8;5;;;9;84.7;;;;;;;;;
2021/04/28 00:26:02;;;;;;;5.8;5;;;9;84.7;;;;;;;;;
2021/04/28 00:26:08;;;;;;;5.8;5;;;9;84.7;;;;;;;;;
2021/04/28 00:26:15;;;;;;;5.8;5;;;9;84.7;;;;;;;;;
2021/04/28 00:26:29;;;;;;;5.93;5.2;;;8.9;84.9;;;;;;;;;
2021/04/28 00:26:44;;;;;;;5.93;5.2;;;8.9;84.9;;;;;;;;;
2021/04/28 00:26:54;;;;;;;5.93;5.2;;;8.9;84.9;;;;;;;;;
2021/04/28 00:27:02;;;;;;;5.93;5.2;;;8.9;84.9;;;;;;;;;
2021/04/28 00:27:15;;;;;;;5.93;5.2;;;8.9;84.9;;;;;;;;;
2021/04/28 00:27:15;;;;;;;5.93;5.2;;;8.9;84.9;;;;;;;;;
2021/04/28 00:27:25;;;;;;;8.6;5.6;;;9;85;;;;;;;;;
2021/04/28 00:27:40;;;;;;;8.6;5.6;;;9;85;;;;;;;;;
2021/04/28 00:27:56;;;;;;;8.6;5.6;;;9;85;;;;;;;;;
2021/04/28 00:28:01;;;;;;;8.6;5.6;;;9;85;;;;;;;;;
2021/04/28 00:28:06;;;;;;;8.6;5.6;;;9;85;;;;;;;;;
2021/04/28 00:28:16;;;;;;;8.6;5.6;;;9;85;;;;;;;;;
2021/04/28 00:28:27;;;;;;;8.07;5.83;;;9;85;;;;;;;;;
2021/04/28 00:28:42;;;;;;;8.07;5.83;;;9;85;;;;;;;;;
2021/04/28 00:28:57;;;;;;;8.07;5.83;;;9;85;;;;;;;;;
2021/04/28 00:29:02;;;;;;;8.07;5.83;;;9;85;;;;;;;;;
2021/04/28 00:29:07;;;;;;;8.07;5.83;;;9;85;;;;;;;;;
2021/04/28 00:29:18;;;;;;;8.07;5.83;;;9;85;;;;;;;;;
2021/04/28 00:29:28;;;;;;;7.83;5.47;;;8.9;85;;;;;;;;;
2021/04/28 00:29:38;;;;;;;7.83;5.47;;;8.9;85;;;;;;;;;
2021/04/28 00:29:54;;;;;;;7.83;5.47;;;8.9;85;;;;;;;;;
2021/04/28 00:30:02;;;;;;;7.83;5.47;;;8.9;85;;;;;;;;;
2021/04/28 00:30:09;;;;;;;7.83;5.47;;;8.9;85;;;;;;;;;
2021/04/28 00:30:14;;;;;;;7.83;5.47;;;8.9;85;;;;;;;;;
2021/04/28 00:30:29;;;;;;;7.63;5.87;;;9;85.1;;;;;;;;;
2021/04/28 00:30:40;;;;;;;7.63;5.87;;;9;85.1;;;;;;;;;
2021/04/28 00:30:55;;;;;;;7.63;5.87;;;9;85.1;;;;;;;;;
2021/04/28 00:31:02;;;;;;;7.63;5.87;;;9;85.1;;;;;;;;;
2021/04/28 00:31:10;;;;;;;7.63;5.87;;;9;85.1;;;;;;;;;
2021/04/28 00:31:15;;;;;;;7.63;5.87;;;9;85.1;;;;;;;;;
2021/04/28 00:31:31;;;;;;;9.1;5.5;;;8.9;85.2;;;;;;;;;
2021/04/28 00:31:41;;;;;;;9.1;5.5;;;8.9;85.2;;;;;;;;;
2021/04/28 00:31:51;;;;;;;9.1;5.5;;;8.9;85.2;;;;;;;;;
2021/04/28 00:32:02;;;;;;;9.1;5.5;;;8.9;85.2;;;;;;;;;
2021/04/28 00:32:07;;;;;;;9.1;5.5;;;8.9;85.2;;;;;;;;;
2021/04/28 00:32:17;;;;;;;9.1;5.5;;;8.9;85.2;;;;;;;;;
2021/04/28 00:32:27;;;;;;;7.93;5.4;;;8.9;85.4;;;;;;;;;
2021/04/28 00:32:42;;;;;;;7.93;5.4;;;8.9;85.4;;;;;;;;;
2021/04/28 00:32:53;;;;;;;7.93;5.4;;;8.9;85.4;;;;;;;;;
2021/04/28 00:33:02;;;;;;;7.93;5.4;;;8.9;85.4;;;;;;;;;
2021/04/28 00:33:08;;;;;;;7.93;5.4;;;8.9;85.4;;;;;;;;;
2021/04/28 00:33:13;;;;;;;7.93;5.4;;;8.9;85.4;;;;;;;;;
2021/04/28 00:33:29;;;;;;;7.37;5.63;;;8.9;85.5;;;;;;;;;
2021/04/28 00:33:44;;;;;;;7.37;5.63;;;8.9;85.5;;;;;;;;;
2021/04/28 00:33:54;;;;;;;7.37;5.63;;;8.9;85.5;;;;;;;;;
2021/04/28 00:34:02;;;;;;;7.37;5.63;;;8.9;85.5;;;;;;;;;
2021/04/28 00:34:04;;;;;;;7.37;5.63;;;8.9;85.5;;;;;;;;;
2021/04/28 00:34:15;;;;;;;7.37;5.63;;;8.9;85.5;;;;;;;;;
2021/04/28 00:34:30;;;;;;;6.63;5.97;;;8.9;85.5;;;;;;;;;
2021/04/28 00:34:40;;;;;;;6.63;5.97;;;8.9;85.5;;;;;;;;;
2021/04/28 00:34:56;;;;;;;6.63;5.97;;;8.9;85.5;;;;;;;;;
2021/04/28 00:35:01;;;;;;;6.63;5.97;;;8.9;85.5;;;;;;;;;
2021/04/28 00:35:06;;;;;;;6.63;5.97;;;8.9;85.5;;;;;;;;;
2021/04/28 00:35:16;;;;;;;6.63;5.97;;;8.9;85.5;;;;;;;;;
2021/04/28 00:35:26;;;;;;;6.07;5.47;;;8.9;85.5;;;;;;;;;
2021/04/28 00:35:42;;;;;;;6.07;5.47;;;8.9;85.5;;;;;;;;;
2021/04/28 00:35:57;;;;;;;6.07;5.47;;;8.9;85.5;;;;;;;;;
2021/04/28 00:36:02;;;;;;;6.07;5.47;;;8.9;85.5;;;;;;;;;
2021/04/28 00:36:07;;;;;;;6.07;5.47;;;8.9;85.5;;;;;;;;;
2021/04/28 00:36:12;;;;;;;6.07;5.47;;;8.9;85.5;;;;;;;;;
2021/04/28 00:36:28;;;;;;;6.97;5.47;;;8.9;85.4;;;;;;;;;
2021/04/28 00:36:43;;;;;;;6.97;5.47;;;8.9;85.4;;;;;;;;;
2021/04/28 00:36:53;;;;;;;6.97;5.47;;;8.9;85.4;;;;;;;;;
2021/04/28 00:37:02;;;;;;;6.97;5.47;;;8.9;85.4;;;;;;;;;
2021/04/28 00:37:09;;;;;;;6.97;5.47;;;8.9;85.4;;;;;;;;;
2021/04/28 00:37:14;;;;;;;6.97;5.47;;;8.9;85.4;;;;;;;;;
2021/04/28 00:37:29;;;;;;;7.63;5.23;;;8.9;85.4;;;;;;;;;
2021/04/28 00:37:39;;;;;;;7.63;5.23;;;8.9;85.4;;;;;;;;;
2021/04/28 00:37:55;;;;;;;7.63;5.23;;;8.9;85.4;;;;;;;;;
2021/04/28 00:38:02;;;;;;;7.63;5.23;;;8.9;85.4;;;;;;;;;
2021/04/28 00:38:10;;;;;;;7.63;5.23;;;8.9;85.4;;;;;;;;;
2021/04/28 00:38:15;;;;;;;7.63;5.23;;;8.9;85.4;;;;;;;;;
2021/04/28 00:38:26;;;;;;;8.37;6.17;;;8.9;85.4;;;;;;;;;
2021/04/28 00:38:41;;;;;;;8.37;6.17;;;8.9;85.4;;;;;;;;;
2021/04/28 00:38:56;;;;;;;8.37;6.17;;;8.9;85.4;;;;;;;;;
2021/04/28 00:39:02;;;;;;;8.37;6.17;;;8.9;85.4;;;;;;;;;
2021/04/28 00:39:06;;;;;;;8.37;6.17;;;8.9;85.4;;;;;;;;;
2021/04/28 00:39:17;;;;;;;8.37;6.17;;;8.9;85.4;;;;;;;;;
2021/04/28 00:39:27;;;;;;;6.53;5.3;;;8.9;86.2;;;;;;;;;
2021/04/28 00:39:42;;;;;;;6.53;5.3;;;8.9;86.2;;;;;;;;;
2021/04/28 00:39:53;;;;;;;6.53;5.3;;;8.9;86.2;;;;;;;;;
2021/04/28 00:40:01;;;;;;;6.53;5.3;;;8.9;86.2;;;;;;;;;
2021/04/28 00:40:08;;;;;;;6.53;5.3;;;8.9;86.2;;;;;;;;;
2021/04/28 00:40:13;;;;;;;6.53;5.3;;;8.9;86.2;;;;;;;;;
2021/04/28 00:40:28;;;;;;;7.43;6.07;;;9;85.3;;;;;;;;;
2021/04/28 00:40:39;;;;;;;7.43;6.07;;;9;85.3;;;;;;;;;
2021/04/28 00:40:54;;;;;;;7.43;6.07;;;9;85.3;;;;;;;;;
2021/04/28 00:41:02;;;;;;;7.43;6.07;;;9;85.3;;;;;;;;;
2021/04/28 00:41:09;;;;;;;7.43;6.07;;;9;85.3;;;;;;;;;
2021/04/28 00:41:15;;;;;;;7.43;6.07;;;9;85.3;;;;;;;;;
2021/04/28 00:41:30;;;;;;;7.6;6.23;;;9;85.1;;;;;;;;;
2021/04/28 00:41:40;;;;;;;7.6;6.23;;;9;85.1;;;;;;;;;
2021/04/28 00:41:55;;;;;;;7.6;6.23;;;9;85.1;;;;;;;;;
2021/04/28 00:42:02;;;;;;;7.6;6.23;;;9;85.1;;;;;;;;;
2021/04/28 00:42:06;;;;;;;7.6;6.23;;;9;85.1;;;;;;;;;
2021/04/28 00:42:16;;;;;;;7.6;6.23;;;9;85.1;;;;;;;;;
2021/04/28 00:42:26;;;;;;;7.53;5.97;;;8.9;85.3;;;;;;;;;
2021/04/28 00:42:42;;;;;;;7.53;5.97;;;8.9;85.3;;;;;;;;;
2021/04/28 00:42:52;;;;;;;7.53;5.97;;;8.9;85.3;;;;;;;;;
2021/04/28 00:43:02;;;;;;;7.53;5.97;;;8.9;85.3;;;;;;;;;
2021/04/28 00:43:07;;;;;;;7.53;5.97;;;8.9;85.3;;;;;;;;;
2021/04/28 00:43:17;;;;;;;7.53;5.97;;;8.9;85.3;;;;;;;;;
2021/04/28 00:43:28;;;;;;;7.07;6.2;;;8.9;85.5;;;;;;;;;
2021/04/28 00:43:43;;;;;;;7.07;6.2;;;8.9;85.5;;;;;;;;;
2021/04/28 00:43:55;;;;;;;7.07;6.2;;;8.9;85.5;;;;;;;;;
2021/04/28 00:44:02;;;;;;;7.07;6.2;;;8.9;85.5;;;;;;;;;
2021/04/28 00:44:09;;;;;;;7.07;6.2;;;8.9;85.5;;;;;;;;;
2021/04/28 00:44:14;;;;;;;7.07;6.2;;;8.9;85.5;;;;;;;;;
2021/04/28 00:44:29;;;;;;;9.67;6;;;8.9;85.7;;;;;;;;;
2021/04/28 00:44:39;;;;;;;9.67;6;;;8.9;85.7;;;;;;;;;
2021/04/28 00:44:55;;;;;;;9.67;6;;;8.9;85.7;;;;;;;;;
2021/04/28 00:45:01;;;;;;;9.67;6;;;8.9;85.7;;;;;;;;;
2021/04/28 00:45:05;;;;;;;9.67;6;;;8.9;85.7;;;;;;;;;
2021/04/28 00:45:15;;;;;;;9.67;6;;;8.9;85.7;;;;;;;;;
2021/04/28 00:45:33;;;;;;;8.23;5.47;;;8.9;85.7;;;;;;;;;
2021/04/28 00:45:43;;;;;;;8.23;5.47;;;8.9;85.7;;;;;;;;;
2021/04/28 00:45:57;;;;;;;8.23;5.47;;;8.9;85.7;;;;;;;;;
2021/04/28 00:46:02;;;;;;;8.23;5.47;;;8.9;85.7;;;;;;;;;
2021/04/28 00:46:06;;;;;;;8.23;5.47;;;8.9;85.7;;;;;;;;;
2021/04/28 00:46:17;;;;;;;8.23;5.47;;;8.9;85.7;;;;;;;;;
2021/04/28 00:46:27;;;;;;;7.1;5.9;;;8.8;85.9;;;;;;;;;
2021/04/28 00:46:42;;;;;;;7.1;5.9;;;8.8;85.9;;;;;;;;;
2021/04/28 00:46:53;;;;;;;7.1;5.9;;;8.8;85.9;;;;;;;;;
2021/04/28 00:47:01;;;;;;;7.1;5.9;;;8.8;85.9;;;;;;;;;
2021/04/28 00:47:08;;;;;;;7.1;5.9;;;8.8;85.9;;;;;;;;;
2021/04/28 00:47:13;;;;;;;7.1;5.9;;;8.8;85.9;;;;;;;;;
2021/04/28 00:47:28;;;;;;;6.33;5.73;;;8.8;86.1;;;;;;;;;
2021/04/28 00:47:44;;;;;;;6.33;5.73;;;8.8;86.1;;;;;;;;;
2021/04/28 00:47:54;;;;;;;6.33;5.73;;;8.8;86.1;;;;;;;;;
2021/04/28 00:48:02;;;;;;;6.33;5.73;;;8.8;86.1;;;;;;;;;
2021/04/28 00:48:10;;;;;;;6.33;5.73;;;8.8;86.1;;;;;;;;;
2021/04/28 00:48:14;;;;;;;6.33;5.73;;;8.8;86.1;;;;;;;;;
2021/04/28 00:48:30;;;;;;;6.93;6.1;;;8.8;86;;;;;;;;;
2021/04/28 00:48:40;;;;;;;6.93;6.1;;;8.8;86;;;;;;;;;
2021/04/28 00:48:55;;;;;;;6.93;6.1;;;8.8;86;;;;;;;;;
2021/04/28 00:49:02;;;;;;;6.93;6.1;;;8.8;86;;;;;;;;;
2021/04/28 00:49:05;;;;;;;6.93;6.1;;;8.8;86;;;;;;;;;
2021/04/28 00:49:16;;;;;;;6.93;6.1;;;8.8;86;;;;;;;;;
2021/04/28 00:49:26;;;;;;;6.77;5.6;;;8.9;85.8;;;;;;;;;
2021/04/28 00:49:41;;;;;;;6.77;5.6;;;8.9;85.8;;;;;;;;;
2021/04/28 00:49:57;;;;;;;6.77;5.6;;;8.9;85.8;;;;;;;;;
2021/04/28 00:50:01;;;;;;;6.77;5.6;;;8.9;85.8;;;;;;;;;
2021/04/28 00:50:07;;;;;;;6.77;5.6;;;8.9;85.8;;;;;;;;;
2021/04/28 00:50:17;;;;;;;6.77;5.6;;;8.9;85.8;;;;;;;;;
2021/04/28 00:50:27;;;;;;;7.3;6.37;;;8.9;85.6;;;;;;;;;
2021/04/28 00:50:43;;;;;;;7.3;6.37;;;8.9;85.6;;;;;;;;;
2021/04/28 00:50:53;;;;;;;7.3;6.37;;;8.9;85.6;;;;;;;;;
2021/04/28 00:51:02;;;;;;;7.3;6.37;;;8.9;85.6;;;;;;;;;
2021/04/28 00:51:08;;;;;;;7.3;6.37;;;8.9;85.6;;;;;;;;;
2021/04/28 00:51:14;;;;;;;7.3;6.37;;;8.9;85.6;;;;;;;;;
2021/04/28 00:51:29;;;;;;;9.33;6.03;;;8.8;85.8;;;;;;;;;
2021/04/28 00:51:39;;;;;;;9.33;6.03;;;8.8;85.8;;;;;;;;;
2021/04/28 00:51:55;;;;;;;9.33;6.03;;;8.8;85.8;;;;;;;;;
2021/04/28 00:52:01;;;;;;;9.33;6.03;;;8.8;85.8;;;;;;;;;
2021/04/28 00:52:10;;;;;;;9.33;6.03;;;8.8;85.8;;;;;;;;;
2021/04/28 00:52:15;;;;;;;9.33;6.03;;;8.8;85.8;;;;;;;;;
2021/04/28 00:52:30;;;;;;;6.37;5.77;;;8.9;85.8;;;;;;;;;
2021/04/28 00:52:41;;;;;;;6.37;5.77;;;8.9;85.8;;;;;;;;;
2021/04/28 00:52:56;;;;;;;6.37;5.77;;;8.9;85.8;;;;;;;;;
2021/04/28 00:53:02;;;;;;;6.37;5.77;;;8.9;85.8;;;;;;;;;
2021/04/28 00:53:06;;;;;;;6.37;5.77;;;8.9;85.8;;;;;;;;;
2021/04/28 00:53:17;;;;;;;6.37;5.77;;;8.9;85.8;;;;;;;;;
2021/04/28 00:53:27;;;;;;;6.37;5.77;;;8.9;85.8;;;;;;;;;
2021/04/28 00:53:42;;;;;;;6.3;5.4;;;8.9;85.8;;;;;;;;;
2021/04/28 00:53:52;;;;;;;6.3;5.4;;;8.9;85.8;;;;;;;;;
2021/04/28 00:54:02;;;;;;;6.3;5.4;;;8.9;85.8;;;;;;;;;
2021/04/28 00:54:08;;;;;;;6.3;5.4;;;8.9;85.8;;;;;;;;;
2021/04/28 00:54:13;;;;;;;6.3;5.4;;;8.9;85.8;;;;;;;;;
2021/04/28 00:54:28;;;;;;;9.33;6.53;;;8.9;85.8;;;;;;;;;
2021/04/28 00:54:44;;;;;;;9.33;6.53;;;8.9;85.8;;;;;;;;;
2021/04/28 00:54:54;;;;;;;9.33;6.53;;;8.9;85.8;;;;;;;;;
2021/04/28 00:55:02;;;;;;;9.33;6.53;;;8.9;85.8;;;;;;;;;
2021/04/28 00:55:09;;;;;;;9.33;6.53;;;8.9;85.8;;;;;;;;;
2021/04/28 00:55:14;;;;;;;9.33;6.53;;;8.9;85.8;;;;;;;;;
2021/04/28 00:55:30;;;;;;;8.73;5.8;;;8.9;85.9;;;;;;;;;
2021/04/28 00:55:40;;;;;;;8.73;5.8;;;8.9;85.9;;;;;;;;;
2021/04/28 00:55:55;;;;;;;8.73;5.8;;;8.9;85.9;;;;;;;;;
2021/04/28 00:56:02;;;;;;;8.73;5.8;;;8.9;85.9;;;;;;;;;
2021/04/28 00:56:05;;;;;;;8.73;5.8;;;8.9;85.9;;;;;;;;;
2021/04/28 00:56:16;;;;;;;8.73;5.8;;;8.9;85.9;;;;;;;;;
2021/04/28 00:56:26;;;;;;;8.73;5.8;;;8.9;85.9;;;;;;;;;
2021/04/28 00:56:41;;;;;;;6.87;5.87;;;8.8;86.9;;;;;;;;;
2021/04/28 00:56:57;;;;;;;6.87;5.87;;;8.8;86.9;;;;;;;;;
2021/04/28 00:57:01;;;;;;;6.87;5.87;;;8.8;86.9;;;;;;;;;
2021/04/28 00:57:07;;;;;;;6.87;5.87;;;8.8;86.9;;;;;;;;;
2021/04/28 00:57:17;;;;;;;6.87;5.87;;;8.8;86.9;;;;;;;;;
2021/04/28 00:57:27;;;;;;;6.87;5.87;;;8.8;86.9;;;;;;;;;
2021/04/28 00:57:43;;;;;;;8.83;6.33;;;8.8;86.1;;;;;;;;;
2021/04/28 00:57:53;;;;;;;8.83;6.33;;;8.8;86.1;;;;;;;;;
2021/04/28 00:58:02;;;;;;;8.83;6.33;;;8.8;86.1;;;;;;;;;
2021/04/28 00:58:08;;;;;;;8.83;6.33;;;8.8;86.1;;;;;;;;;
2021/04/28 00:58:13;;;;;;;8.83;6.33;;;8.8;86.1;;;;;;;;;
2021/04/28 00:58:29;;;;;;;7.23;5.97;;;8.9;86;;;;;;;;;
2021/04/28 00:58:39;;;;;;;7.23;5.97;;;8.9;86;;;;;;;;;
2021/04/28 00:58:54;;;;;;;7.23;5.97;;;8.9;86;;;;;;;;;
2021/04/28 00:59:02;;;;;;;7.23;5.97;;;8.9;86;;;;;;;;;
2021/04/28 00:59:10;;;;;;;7.23;5.97;;;8.9;86;;;;;;;;;
2021/04/28 00:59:15;;;;;;;7.23;5.97;;;8.9;86;;;;;;;;;
2021/04/28 00:59:30;;;;;;;6.97;6.2;;;8.9;85.8;;;;;;;;;
2021/04/28 00:59:40;;;;;;;6.97;6.2;;;8.9;85.8;;;;;;;;;
2021/04/28 00:59:56;;;;;;;6.97;6.2;;;8.9;85.8;;;;;;;;;
2021/04/28 01:00:02;;;;;;;6.97;6.2;;;8.9;85.8;;;;;;;;;
2021/04/28 01:00:06;;;;;;;6.97;6.2;;;8.9;85.8;;;;;;;;;
2021/04/28 01:00:16;;;;;;;6.97;6.2;;;8.9;85.8;;;;;;;;;
2021/04/28 01:00:26;;;;;;;6.97;6.2;;;8.9;85.8;;;;;;;;;
2021/04/28 01:00:42;;;;;;;6.6;5.77;;;8.9;85.6;;;;;;;;;
2021/04/28 01:00:52;;;;;;;6.6;5.77;;;8.9;85.6;;;;;;;;;
2021/04/28 01:01:02;;;;;;;6.6;5.77;;;8.9;85.6;;;;;;;;;
2021/04/28 01:01:07;;;;;;;6.6;5.77;;;8.9;85.6;;;;;;;;;
2021/04/28 01:01:13;;;;;;;6.6;5.77;;;8.9;85.6;;;;;;;;;
2021/04/28 01:01:28;;;;;;;6.6;5.77;;;8.9;85.6;;;;;;;;;
2021/04/28 01:01:43;;;;;;;6.73;5.47;;;8.9;85.6;;;;;;;;;
2021/04/28 01:01:54;;;;;;;6.73;5.47;;;8.9;85.6;;;;;;;;;
2021/04/28 01:02:01;;;;;;;6.73;5.47;;;8.9;85.6;;;;;;;;;
2021/04/28 01:02:09;;;;;;;6.73;5.47;;;8.9;85.6;;;;;;;;;
2021/04/28 01:02:14;;;;;;;6.73;5.47;;;8.9;85.6;;;;;;;;;
2021/04/28 01:02:30;;;;;;;6.73;5.47;;;8.9;85.6;;;;;;;;;
2021/04/28 01:02:40;;;;;;;6.5;5.33;;;8.9;85.8;;;;;;;;;
2021/04/28 01:02:55;;;;;;;6.5;5.33;;;8.9;85.8;;;;;;;;;
2021/04/28 01:03:02;;;;;;;6.5;5.33;;;8.9;85.8;;;;;;;;;
2021/04/28 01:03:05;;;;;;;6.5;5.33;;;8.9;85.8;;;;;;;;;
2021/04/28 01:03:15;;;;;;;6.5;5.33;;;8.9;85.8;;;;;;;;;
2021/04/28 01:03:26;;;;;;;6.5;5.33;;;8.9;85.8;;;;;;;;;
2021/04/28 01:03:42;;;;;;;7;4.9;;;8.8;85.9;;;;;;;;;
2021/04/28 01:03:56;;;;;;;7;4.9;;;8.8;85.9;;;;;;;;;
2021/04/28 01:04:02;;;;;;;7;4.9;;;8.8;85.9;;;;;;;;;
2021/04/28 01:04:07;;;;;;;7;4.9;;;8.8;85.9;;;;;;;;;
2021/04/28 01:04:12;;;;;;;7;4.9;;;8.8;85.9;;;;;;;;;
2021/04/28 01:04:27;;;;;;;7;4.9;;;8.8;85.9;;;;;;;;;
2021/04/28 01:04:43;;;;;;;8.3;5.07;;;8.8;86;;;;;;;;;
2021/04/28 01:04:53;;;;;;;8.3;5.07;;;8.8;86;;;;;;;;;
2021/04/28 01:05:02;;;;;;;8.3;5.07;;;8.8;86;;;;;;;;;
2021/04/28 01:05:08;;;;;;;8.3;5.07;;;8.8;86;;;;;;;;;
2021/04/28 01:05:13;;;;;;;8.3;5.07;;;8.8;86;;;;;;;;;
2021/04/28 01:05:29;;;;;;;8.3;5.07;;;8.8;86;;;;;;;;;
2021/04/28 01:05:39;;;;;;;8.1;5.77;;;8.7;86.1;;;;;;;;;
2021/04/28 01:05:54;;;;;;;8.1;5.77;;;8.7;86.1;;;;;;;;;
2021/04/28 01:06:02;;;;;;;8.1;5.77;;;8.7;86.1;;;;;;;;;
2021/04/28 01:06:09;;;;;;;8.1;5.77;;;8.7;86.1;;;;;;;;;
2021/04/28 01:06:15;;;;;;;8.1;5.77;;;8.7;86.1;;;;;;;;;
2021/04/28 01:06:25;;;;;;;8.1;5.77;;;8.7;86.1;;;;;;;;;
2021/04/28 01:06:40;;;;;;;7.47;6;;;8.7;86.3;;;;;;;;;
2021/04/28 01:06:56;;;;;;;7.47;6;;;8.7;86.3;;;;;;;;;
2021/04/28 01:07:01;;;;;;;7.47;6;;;8.7;86.3;;;;;;;;;
2021/04/28 01:07:06;;;;;;;7.47;6;;;8.7;86.3;;;;;;;;;
2021/04/28 01:07:16;;;;;;;7.47;6;;;8.7;86.3;;;;;;;;;
2021/04/28 01:07:26;;;;;;;7.47;6;;;8.7;86.3;;;;;;;;;
2021/04/28 01:07:42;;;;;;;6.57;5.33;;;8.7;86.5;;;;;;;;;
2021/04/28 01:07:52;;;;;;;6.57;5.33;;;8.7;86.5;;;;;;;;;
2021/04/28 01:08:02;;;;;;;6.57;5.33;;;8.7;86.5;;;;;;;;;
2021/04/28 01:08:07;;;;;;;6.57;5.33;;;8.7;86.5;;;;;;;;;
2021/04/28 01:08:18;;;;;;;6.57;5.33;;;8.7;86.5;;;;;;;;;
2021/04/28 01:08:28;;;;;;;6.57;5.33;;;8.7;86.5;;;;;;;;;
2021/04/28 01:08:38;;;;;;;9.13;5.77;;;8.7;86.6;;;;;;;;;
2021/04/28 01:08:53;;;;;;;9.13;5.77;;;8.7;86.6;;;;;;;;;
2021/04/28 01:09:02;;;;;;;9.13;5.77;;;8.7;86.6;;;;;;;;;
2021/04/28 01:09:09;;;;;;;9.13;5.77;;;8.7;86.6;;;;;;;;;
2021/04/28 01:09:14;;;;;;;9.13;5.77;;;8.7;86.6;;;;;;;;;
2021/04/28 01:09:29;;;;;;;9.13;5.77;;;8.7;86.6;;;;;;;;;
2021/04/28 01:09:40;;;;;;;6.13;5.2;;;8.6;86.6;;;;;;;;;
2021/04/28 01:09:55;;;;;;;6.13;5.2;;;8.6;86.6;;;;;;;;;
2021/04/28 01:10:02;;;;;;;6.13;5.2;;;8.6;86.6;;;;;;;;;
2021/04/28 01:10:05;;;;;;;6.13;5.2;;;8.6;86.6;;;;;;;;;
2021/04/28 01:10:15;;;;;;;6.13;5.2;;;8.6;86.6;;;;;;;;;
2021/04/28 01:10:31;;;;;;;6.13;5.2;;;8.6;86.6;;;;;;;;;
2021/04/28 01:10:41;;;;;;;6.5;5.8;;;8.7;86.8;;;;;;;;;
2021/04/28 01:10:51;;;;;;;6.5;5.8;;;8.7;86.8;;;;;;;;;
2021/04/28 01:11:02;;;;;;;6.5;5.8;;;8.7;86.8;;;;;;;;;
2021/04/28 01:11:07;;;;;;;6.5;5.8;;;8.7;86.8;;;;;;;;;
2021/04/28 01:11:17;;;;;;;6.5;5.8;;;8.7;86.8;;;;;;;;;
2021/04/28 01:11:27;;;;;;;6.5;5.8;;;8.7;86.8;;;;;;;;;
2021/04/28 01:11:42;;;;;;;8.73;5.97;;;8.7;86.7;;;;;;;;;
2021/04/28 01:11:53;;;;;;;8.73;5.97;;;8.7;86.7;;;;;;;;;
2021/04/28 01:12:01;;;;;;;8.73;5.97;;;8.7;86.7;;;;;;;;;
2021/04/28 01:12:08;;;;;;;8.73;5.97;;;8.7;86.7;;;;;;;;;
2021/04/28 01:12:18;;;;;;;8.73;5.97;;;8.7;86.7;;;;;;;;;
2021/04/28 01:12:28;;;;;;;8.73;5.97;;;8.7;86.7;;;;;;;;;
2021/04/28 01:12:44;;;;;;;6.4;5.57;;;8.7;86.5;;;;;;;;;
2021/04/28 01:12:54;;;;;;;6.4;5.57;;;8.7;86.5;;;;;;;;;
2021/04/28 01:13:02;;;;;;;6.4;5.57;;;8.7;86.5;;;;;;;;;
2021/04/28 01:13:04;;;;;;;6.4;5.57;;;8.7;86.5;;;;;;;;;
2021/04/28 01:13:14;;;;;;;6.4;5.57;;;8.7;86.5;;;;;;;;;
2021/04/28 01:13:30;;;;;;;6.4;5.57;;;8.7;86.5;;;;;;;;;
2021/04/28 01:13:40;;;;;;;8;5.7;;;8.8;86.3;;;;;;;;;
2021/04/28 01:13:55;;;;;;;8;5.7;;;8.8;86.3;;;;;;;;;
2021/04/28 01:14:02;;;;;;;8;5.7;;;8.8;86.3;;;;;;;;;
2021/04/28 01:14:06;;;;;;;8;5.7;;;8.8;86.3;;;;;;;;;
2021/04/28 01:14:16;;;;;;;8;5.7;;;8.8;86.3;;;;;;;;;
2021/04/28 01:14:31;;;;;;;8;5.7;;;8.8;86.3;;;;;;;;;
2021/04/28 01:14:42;;;;;;;6.73;6;;;8.8;86.4;;;;;;;;;
2021/04/28 01:14:57;;;;;;;6.73;6;;;8.8;86.4;;;;;;;;;
2021/04/28 01:15:02;;;;;;;6.73;6;;;8.8;86.4;;;;;;;;;
2021/04/28 01:15:07;;;;;;;6.73;6;;;8.8;86.4;;;;;;;;;
2021/04/28 01:15:12;;;;;;;6.73;6;;;8.8;86.4;;;;;;;;;
2021/04/28 01:15:28;;;;;;;6.73;6;;;8.8;86.4;;;;;;;;;
2021/04/28 01:15:43;;;;;;;7.77;5.67;;;8.8;86.4;;;;;;;;;
2021/04/28 01:15:53;;;;;;;7.77;5.67;;;8.8;86.4;;;;;;;;;
2021/04/28 01:16:02;;;;;;;7.77;5.67;;;8.8;86.4;;;;;;;;;
2021/04/28 01:16:09;;;;;;;7.77;5.67;;;8.8;86.4;;;;;;;;;
2021/04/28 01:16:14;;;;;;;7.77;5.67;;;8.8;86.4;;;;;;;;;
2021/04/28 01:16:29;;;;;;;7.77;5.67;;;8.8;86.4;;;;;;;;;
2021/04/28 01:16:44;;;;;;;7;6;;;8.8;86.3;;;;;;;;;
2021/04/28 01:16:55;;;;;;;7;6;;;8.8;86.3;;;;;;;;;
2021/04/28 01:17:01;;;;;;;7;6;;;8.8;86.3;;;;;;;;;
2021/04/28 01:17:10;;;;;;;7;6;;;8.8;86.3;;;;;;;;;
2021/04/28 01:17:15;;;;;;;7;6;;;8.8;86.3;;;;;;;;;
2021/04/28 01:17:25;;;;;;;7;6;;;8.8;86.3;;;;;;;;;